createdAt,value
2022-08-07T00:01:44.704Z,9.20
2022-08-07T00:04:09.620Z,9.20
2022-08-07T00:06:51.256Z,9.10
2022-08-07T00:09:29.144Z,9.30
2022-08-07T00:12:02.070Z,9.37
2022-08-07T00:14:31.760Z,9.37
2022-08-07T00:17:02.559Z,9.33
2022-08-07T00:19:59.860Z,9.30
2022-08-07T00:22:34.535Z,9.70
2022-08-07T00:25:07.006Z,9.57
2022-08-07T00:27:52.580Z,9.30
2022-08-07T00:30:27.644Z,9.40
2022-08-07T00:32:57.531Z,9.73
2022-08-07T00:35:29.769Z,9.60
2022-08-07T00:37:59.039Z,9.40
2022-08-07T00:40:40.024Z,9.83
2022-08-07T00:43:10.575Z,9.30
2022-08-07T00:45:59.326Z,9.70
2022-08-07T00:48:30.901Z,9.60
2022-08-07T00:51:03.084Z,9.60
2022-08-07T00:53:39.395Z,9.73
2022-08-07T00:56:19.861Z,9.33
2022-08-07T00:58:49.750Z,9.43
2022-08-07T01:01:20.441Z,9.60
2022-08-07T01:03:56.150Z,9.60
2022-08-07T01:06:30.402Z,9.50
2022-08-07T01:09:02.848Z,9.60
2022-08-07T01:12:09.489Z,9.40
2022-08-07T01:14:28.435Z,9.70
2022-08-07T01:16:58.566Z,9.40
2022-08-07T01:19:32.159Z,9.63
2022-08-07T01:22:08.921Z,9.47
2022-08-07T01:24:48.039Z,9.73
2022-08-07T01:27:32.130Z,9.73
2022-08-07T01:30:02.754Z,9.80
2022-08-07T01:32:31.865Z,9.93
2022-08-07T01:35:02.473Z,9.90
2022-08-07T01:37:33.949Z,9.60
2022-08-07T01:40:05.899Z,9.73
2022-08-07T01:42:57.213Z,9.70
2022-08-07T01:45:36.199Z,9.77
2022-08-07T01:48:20.774Z,12.40
2022-08-07T01:51:24.673Z,9.53
2022-08-07T01:54:08.442Z,9.90
2022-08-07T01:56:49.430Z,9.53
2022-08-07T01:59:31.192Z,9.73
2022-08-07T02:02:06.136Z,10.07
2022-08-07T02:04:55.662Z,9.80
2022-08-07T02:07:35.896Z,10.30
2022-08-07T02:10:16.593Z,9.93
2022-08-07T02:12:50.211Z,9.43
2022-08-07T02:15:27.923Z,9.43
2022-08-07T02:17:59.900Z,9.70
2022-08-07T02:20:31.663Z,9.80
2022-08-07T02:23:04.836Z,9.70
2022-08-07T02:26:31.301Z,9.60
2022-08-07T02:28:30.855Z,10.00
2022-08-07T02:31:18.886Z,9.90
2022-08-07T02:34:03.446Z,9.57
2022-08-07T02:36:39.392Z,10.00
2022-08-07T02:39:17.473Z,9.97
2022-08-07T02:42:10.257Z,9.73
2022-08-07T02:44:48.758Z,9.90
2022-08-07T02:47:23.632Z,9.90
2022-08-07T02:49:59.563Z,9.70
2022-08-07T02:52:37.313Z,9.90
2022-08-07T02:55:15.398Z,9.50
2022-08-07T02:58:04.206Z,9.87
2022-08-07T03:00:36.338Z,10.33
2022-08-07T03:03:13.611Z,9.80
2022-08-07T03:05:46.343Z,9.90
2022-08-07T03:08:17.911Z,9.83
2022-08-07T03:10:56.989Z,10.33
2022-08-07T03:13:38.893Z,9.80
2022-08-07T03:16:22.999Z,9.90
2022-08-07T03:18:57.468Z,10.10
2022-08-07T03:21:26.650Z,9.60
2022-08-07T03:24:20.966Z,9.70
2022-08-07T03:27:10.268Z,9.50
2022-08-07T03:29:51.278Z,9.80
2022-08-07T03:32:29.621Z,9.77
2022-08-07T03:35:17.556Z,9.67
2022-08-07T03:37:55.179Z,9.70
2022-08-07T03:40:31.075Z,9.70
2022-08-07T03:43:10.117Z,9.80
2022-08-07T03:45:48.689Z,10.00
2022-08-07T03:48:21.817Z,9.90
2022-08-07T03:50:55.873Z,10.00
2022-08-07T03:54:05.984Z,9.87
2022-08-07T03:56:33.159Z,10.03
2022-08-07T03:59:13.020Z,9.67
2022-08-07T04:01:50.870Z,10.00
2022-08-07T04:04:23.293Z,10.00
2022-08-07T04:06:58.506Z,9.90
2022-08-07T04:09:45.103Z,9.90
2022-08-07T04:12:25.887Z,9.90
2022-08-07T04:14:58.567Z,9.93
2022-08-07T04:18:57.906Z,9.60
2022-08-07T04:20:20.281Z,9.80
2022-08-07T04:22:53.685Z,9.67
2022-08-07T04:25:31.554Z,9.63
2022-08-07T04:28:08.643Z,9.90
2022-08-07T04:30:43.943Z,9.50
2022-08-07T04:33:31.002Z,9.97
2022-08-07T04:36:06.625Z,9.50
2022-08-07T04:38:35.984Z,10.00
2022-08-07T04:41:05.394Z,9.73
2022-08-07T04:44:12.165Z,9.40
2022-08-07T04:47:04.319Z,9.77
2022-08-07T04:49:57.505Z,10.00
2022-08-07T04:52:50.978Z,9.77
2022-08-07T04:58:13.924Z,9.80
2022-08-07T04:59:09.153Z,9.80
2022-08-07T05:01:33.346Z,9.80
2022-08-07T05:04:17.395Z,9.93
2022-08-07T05:07:19.447Z,9.60
2022-08-07T05:09:59.406Z,9.40
2022-08-07T05:12:37.858Z,9.70
2022-08-07T05:15:23.788Z,10.03
2022-08-07T05:18:10.402Z,10.13
2022-08-07T05:20:45.410Z,9.80
2022-08-07T05:23:29.087Z,9.50
2022-08-07T05:26:13.091Z,9.77
2022-08-07T05:28:50.002Z,9.50
2022-08-07T05:31:23.023Z,9.80
2022-08-07T05:34:04.297Z,9.40
2022-08-07T05:36:39.085Z,9.50
2022-08-07T05:40:05.819Z,9.60
2022-08-07T05:42:12.442Z,9.70
2022-08-07T05:44:46.724Z,9.83
2022-08-07T05:48:01.761Z,9.67
2022-08-07T05:50:23.875Z,9.70
2022-08-07T05:52:52.375Z,9.70
2022-08-07T05:55:23.094Z,9.73
2022-08-07T05:58:13.039Z,9.90
2022-08-07T06:00:46.234Z,9.67
2022-08-07T06:03:21.843Z,9.70
2022-08-07T06:05:56.698Z,9.77
2022-08-07T06:08:31.272Z,9.77
2022-08-07T06:11:03.831Z,9.43
2022-08-07T06:14:12.148Z,9.60
2022-08-07T06:16:24.430Z,9.77
2022-08-07T06:18:59.219Z,9.60
2022-08-07T06:22:15.897Z,9.53
2022-08-07T06:24:45.795Z,9.70
2022-08-07T06:27:07.869Z,9.60
2022-08-07T06:29:38.993Z,9.70
2022-08-07T06:32:08.743Z,9.40
2022-08-07T06:34:37.093Z,9.63
2022-08-07T06:37:09.821Z,9.40
2022-08-07T06:40:15.632Z,9.60
2022-08-07T06:42:38.118Z,9.30
2022-08-07T06:45:13.003Z,9.67
2022-08-07T06:47:58.399Z,9.90
2022-08-07T06:50:43.114Z,9.30
2022-08-07T06:54:11.746Z,9.30
2022-08-07T06:56:03.827Z,9.33
2022-08-07T07:00:13.123Z,9.93
2022-08-07T07:01:33.133Z,9.70
2022-08-07T07:04:28.545Z,9.27
2022-08-07T07:07:18.942Z,9.70
2022-08-07T07:09:55.433Z,9.40
2022-08-07T07:12:38.243Z,9.50
2022-08-07T07:15:23.988Z,9.43
2022-08-07T07:18:05.551Z,9.50
2022-08-07T07:20:39.343Z,9.30
2022-08-07T07:24:09.336Z,9.30
2022-08-07T07:26:34.549Z,10.20
2022-08-07T07:29:56.635Z,9.47
2022-08-07T07:31:51.640Z,9.40
2022-08-07T07:34:31.240Z,9.20
2022-08-07T07:37:14.258Z,9.13
2022-08-07T07:39:52.168Z,9.10
2022-08-07T07:42:29.963Z,9.43
2022-08-07T07:45:03.107Z,9.20
2022-08-07T07:47:42.987Z,9.30
2022-08-07T07:50:34.011Z,9.17
2022-08-07T07:53:13.528Z,9.07
2022-08-07T07:55:57.451Z,9.10
2022-08-07T07:58:30.175Z,9.23
2022-08-07T08:01:00.312Z,9.10
2022-08-07T08:04:09.522Z,8.90
2022-08-07T08:06:48.117Z,9.07
2022-08-07T08:09:23.511Z,8.90
2022-08-07T08:12:01.939Z,9.00
2022-08-07T08:14:34.445Z,9.07
2022-08-07T08:17:55.554Z,9.13
2022-08-07T08:20:18.006Z,8.97
2022-08-07T08:23:14.438Z,8.80
2022-08-07T08:26:06.844Z,8.90
2022-08-07T08:28:43.315Z,8.87
2022-08-07T08:31:22.799Z,9.27
2022-08-07T08:34:26.959Z,8.50
2022-08-07T08:36:58.617Z,8.50
2022-08-07T08:39:39.425Z,8.80
2022-08-07T08:42:26.149Z,8.40
2022-08-07T08:45:13.284Z,8.90
2022-08-07T08:47:52.727Z,8.43
2022-08-07T08:50:35.039Z,8.50
2022-08-07T08:53:29.440Z,8.50
2022-08-07T08:56:02.702Z,8.60
2022-08-07T08:58:42.729Z,8.70
2022-08-07T09:01:18.607Z,8.70
2022-08-07T09:03:59.552Z,8.40
2022-08-07T09:06:52.322Z,8.70
2022-08-07T09:09:43.363Z,8.70
2022-08-07T09:12:30.936Z,8.60
2022-08-07T09:16:25.929Z,8.73
2022-08-07T09:18:36.639Z,8.53
2022-08-07T09:21:34.122Z,8.50
2022-08-07T09:24:33.425Z,8.53
2022-08-07T09:27:18.016Z,8.70
2022-08-07T09:30:05.592Z,8.30
2022-08-07T09:32:58.390Z,8.30
2022-08-07T09:36:04.425Z,8.50
2022-08-07T09:38:50.132Z,8.40
2022-08-07T09:41:36.458Z,8.60
2022-08-07T09:44:46.480Z,8.33
2022-08-07T09:47:59.545Z,8.60
2022-08-07T09:50:34.416Z,8.60
2022-08-07T09:53:07.456Z,8.60
2022-08-07T09:56:06.592Z,8.40
2022-08-07T09:59:44.363Z,8.40
2022-08-07T10:02:54.998Z,8.67
2022-08-07T10:06:03.538Z,8.30
2022-08-07T10:09:10.208Z,8.30
2022-08-07T10:12:15.120Z,8.53
2022-08-07T10:15:15.049Z,8.37
2022-08-07T10:18:11.129Z,8.67
2022-08-07T10:20:50.295Z,8.33
2022-08-07T10:24:06.734Z,8.50
2022-08-07T10:26:53.939Z,8.50
2022-08-07T10:30:01.900Z,8.60
2022-08-07T10:32:54.154Z,8.10
2022-08-07T10:35:53.597Z,8.40
2022-08-07T10:38:47.839Z,8.60
2022-08-07T10:41:52.393Z,8.30
2022-08-07T10:44:28.335Z,8.37
2022-08-07T10:47:27.122Z,8.40
2022-08-07T10:50:16.229Z,8.17
2022-08-07T10:52:59.962Z,8.70
2022-08-07T10:55:46.788Z,8.10
2022-08-07T10:58:46.099Z,8.30
2022-08-07T11:01:52.016Z,8.17
2022-08-07T11:04:59.649Z,8.17
2022-08-07T11:07:58.507Z,8.50
2022-08-07T11:10:37.224Z,8.50
2022-08-07T11:14:42.056Z,8.40
2022-08-07T11:16:10.441Z,8.50
2022-08-07T11:18:51.904Z,8.70
2022-08-07T11:21:32.523Z,8.27
2022-08-07T11:24:18.833Z,8.47
2022-08-07T11:26:53.949Z,8.20
2022-08-07T11:29:43.596Z,8.27
2022-08-07T11:32:25.235Z,8.23
2022-08-07T11:34:59.278Z,8.13
2022-08-07T11:37:58.243Z,8.10
2022-08-07T11:40:57.284Z,8.30
2022-08-07T11:43:54.249Z,7.87
2022-08-07T11:46:38.130Z,8.20
2022-08-07T11:49:51.155Z,8.60
2022-08-07T11:52:41.181Z,8.13
2022-08-07T11:56:09.165Z,8.30
2022-08-07T11:58:21.315Z,8.30
2022-08-07T12:01:22.055Z,8.40
2022-08-07T12:04:17.317Z,8.47
2022-08-07T12:07:01.048Z,8.20
2022-08-07T12:09:49.984Z,8.20
2022-08-07T12:12:25.341Z,8.20
2022-08-07T12:15:01.879Z,8.20
2022-08-07T12:17:58.749Z,8.40
2022-08-07T12:20:36.357Z,8.30
2022-08-07T12:24:06.927Z,8.13
2022-08-07T12:26:46.398Z,8.80
2022-08-07T12:29:38.176Z,8.30
2022-08-07T12:32:18.685Z,8.07
2022-08-07T12:34:55.824Z,8.30
2022-08-07T12:37:27.738Z,8.43
2022-08-07T12:39:59.756Z,8.33
2022-08-07T12:42:32.403Z,8.30
2022-08-07T12:45:08.703Z,8.20
2022-08-07T12:47:49.211Z,8.23
2022-08-07T12:50:39.346Z,8.30
2022-08-07T12:53:22.154Z,8.00
2022-08-07T12:56:02.844Z,8.00
2022-08-07T12:58:40.157Z,8.30
2022-08-07T13:01:28.024Z,8.23
2022-08-07T13:04:34.567Z,8.07
2022-08-07T13:08:13.682Z,8.00
2022-08-07T13:10:51.890Z,8.33
2022-08-07T13:13:48.606Z,8.30
2022-08-07T13:16:30.689Z,8.50
2022-08-07T13:19:21.699Z,8.20
2022-08-07T13:22:03.053Z,15.30
2022-08-07T13:24:43.897Z,8.07
2022-08-07T13:28:05.612Z,8.43
2022-08-07T13:30:19.062Z,8.60
2022-08-07T13:34:14.400Z,8.27
2022-08-07T13:36:09.059Z,7.97
2022-08-07T13:38:54.216Z,8.50
2022-08-07T13:41:35.684Z,8.30
2022-08-07T13:44:12.964Z,8.30
2022-08-07T13:46:49.469Z,8.10
2022-08-07T13:50:33.596Z,8.17
2022-08-07T13:52:23.112Z,8.33
2022-08-07T13:54:59.169Z,8.10
2022-08-07T13:57:37.570Z,8.27
2022-08-07T14:00:26.472Z,8.10
2022-08-07T14:02:57.585Z,8.20
2022-08-07T14:05:37.171Z,8.20
2022-08-07T14:08:09.046Z,7.90
2022-08-07T14:10:42.460Z,7.97
2022-08-07T14:13:17.995Z,8.10
2022-08-07T14:15:57.054Z,8.23
2022-08-07T14:18:33.238Z,7.97
2022-08-07T14:21:21.062Z,8.33
2022-08-07T14:24:03.687Z,7.80
2022-08-07T14:26:39.099Z,7.97
2022-08-07T14:30:05.897Z,8.43
2022-08-07T14:32:07.936Z,8.00
2022-08-07T14:34:46.160Z,8.50
2022-08-07T14:37:18.775Z,8.17
2022-08-07T14:40:15.466Z,8.00
2022-08-07T14:43:00.897Z,7.80
2022-08-07T14:45:46.815Z,8.30
2022-08-07T14:48:21.419Z,8.67
2022-08-07T14:50:54.234Z,8.40
2022-08-07T14:54:03.649Z,8.13
2022-08-07T14:56:30.172Z,8.30
2022-08-07T15:00:02.685Z,8.50
2022-08-07T15:01:58.364Z,8.40
2022-08-07T15:07:24.665Z,8.40
2022-08-07T15:10:25.105Z,8.53
2022-08-07T15:12:59.516Z,8.20
2022-08-07T15:15:38.975Z,8.17
2022-08-07T15:18:14.250Z,8.37
2022-08-07T15:21:08.231Z,8.50
2022-08-07T15:25:14.408Z,8.20
2022-08-07T15:26:54.987Z,7.87
2022-08-07T15:30:04.493Z,8.23
2022-08-07T15:32:39.545Z,8.17
2022-08-07T15:35:17.221Z,8.20
2022-08-07T15:38:04.852Z,8.30
2022-08-07T15:41:00.281Z,8.40
2022-08-07T15:43:55.742Z,8.37
2022-08-07T15:46:32.370Z,8.30
2022-08-07T15:49:18.943Z,8.40
2022-08-07T15:54:39.667Z,8.13
2022-08-07T15:57:39.867Z,8.23
2022-08-07T16:00:07.917Z,8.07
2022-08-07T16:02:46.572Z,8.27
2022-08-07T16:05:20.063Z,8.33
2022-08-07T16:08:31.704Z,8.17
2022-08-07T16:10:53.257Z,8.60
2022-08-07T16:13:58.373Z,8.30
2022-08-07T16:16:57.055Z,8.30
2022-08-07T16:20:00.024Z,8.33
2022-08-07T16:22:55.346Z,8.40
2022-08-07T16:26:03.171Z,8.40
2022-08-07T16:30:06.926Z,8.30
2022-08-07T16:31:57.448Z,8.00
2022-08-07T16:34:49.783Z,8.20
2022-08-07T16:38:07.200Z,8.40
2022-08-07T16:41:22.381Z,8.30
2022-08-07T16:44:40.472Z,8.03
2022-08-07T16:47:55.905Z,8.17
2022-08-07T16:50:52.678Z,8.30
2022-08-07T16:54:06.879Z,8.10
2022-08-07T16:56:53.536Z,8.40
2022-08-07T16:59:46.837Z,8.20
2022-08-07T17:02:52.919Z,8.17
2022-08-07T17:06:19.727Z,8.27
2022-08-07T17:09:09.483Z,8.27
2022-08-07T17:12:03.845Z,8.37
2022-08-07T17:14:37.184Z,8.27
2022-08-07T17:17:21.577Z,8.10
2022-08-07T17:20:03.197Z,8.17
2022-08-07T17:22:57.085Z,7.90
2022-08-07T17:25:47.653Z,8.50
2022-08-07T17:28:33.188Z,8.10
2022-08-07T17:31:16.201Z,8.17
2022-08-07T17:34:32.874Z,8.20
2022-08-07T17:36:57.883Z,8.30
2022-08-07T17:39:53.141Z,8.10
2022-08-07T17:42:59.784Z,8.00
2022-08-07T17:45:35.751Z,8.20
2022-08-07T17:48:12.734Z,8.17
2022-08-07T17:50:56.418Z,8.57
2022-08-07T17:54:01.768Z,8.10
2022-08-07T17:56:30.321Z,8.23
2022-08-07T17:59:10.955Z,8.20
2022-08-07T18:01:56.743Z,8.20
2022-08-07T18:04:34.531Z,8.20
2022-08-07T18:07:22.649Z,8.27
2022-08-07T18:10:06.110Z,8.30
2022-08-07T18:13:15.408Z,8.50
2022-08-07T18:16:05.758Z,8.23
2022-08-07T18:21:12.714Z,8.20
2022-08-07T18:21:57.911Z,8.80
2022-08-07T18:24:37.256Z,8.17
2022-08-07T18:27:25.087Z,8.00
2022-08-07T18:30:32.282Z,8.40
2022-08-07T18:34:28.609Z,8.50
2022-08-07T18:38:56.139Z,8.30
2022-08-07T18:40:40.511Z,8.30
2022-08-07T18:43:15.965Z,8.43
2022-08-07T18:46:24.726Z,8.57
2022-08-07T18:50:05.841Z,8.30
2022-08-07T18:52:35.136Z,8.30
2022-08-07T18:54:50.805Z,8.30
2022-08-07T18:57:39.335Z,8.40
2022-08-07T19:00:33.092Z,8.27
2022-08-07T19:03:12.379Z,8.30
2022-08-07T19:06:03.652Z,8.23
2022-08-07T19:08:47.135Z,8.50
2022-08-07T19:11:34.973Z,8.40
2022-08-07T19:14:16.911Z,8.50
2022-08-07T19:17:07.612Z,8.60
2022-08-07T19:19:53.157Z,8.47
2022-08-07T19:22:30.390Z,8.60
2022-08-07T19:25:05.682Z,8.27
2022-08-07T19:28:30.628Z,8.60
2022-08-07T19:31:01.611Z,8.40
2022-08-07T19:33:34.674Z,8.67
2022-08-07T19:36:08.921Z,8.90
2022-08-07T19:38:53.248Z,9.27
2022-08-07T19:41:44.568Z,9.63
2022-08-07T19:44:21.056Z,9.43
2022-08-07T19:46:57.680Z,9.90
2022-08-07T19:49:58.545Z,9.67
2022-08-07T19:52:19.463Z,9.10
2022-08-07T19:54:56.548Z,9.00
2022-08-07T19:58:01.225Z,9.33
2022-08-07T20:00:28.913Z,9.30
2022-08-07T20:03:03.768Z,9.17
2022-08-07T20:06:00.042Z,9.27
2022-08-07T20:08:30.152Z,9.23
2022-08-07T20:11:04.024Z,9.10
2022-08-07T20:13:47.041Z,9.20
2022-08-07T20:16:35.844Z,9.10
2022-08-07T20:19:10.393Z,8.90
2022-08-07T20:21:47.495Z,8.70
2022-08-07T20:24:21.055Z,8.80
2022-08-07T20:26:52.393Z,8.60
2022-08-07T20:29:48.179Z,8.70
2022-08-07T20:32:25.973Z,9.07
2022-08-07T20:34:58.081Z,8.83
2022-08-07T20:37:33.718Z,8.77
2022-08-07T20:40:31.630Z,8.67
2022-08-07T20:42:57.899Z,8.83
2022-08-07T20:45:33.265Z,8.90
2022-08-07T20:48:30.359Z,8.90
2022-08-07T20:51:03.196Z,8.57
2022-08-07T20:54:03.880Z,9.13
2022-08-07T20:56:28.122Z,9.70
2022-08-07T20:59:02.953Z,8.80
2022-08-07T21:01:45.711Z,8.70
2022-08-07T21:04:29.175Z,8.83
2022-08-07T21:07:04.287Z,9.00
2022-08-07T21:09:52.436Z,8.70
2022-08-07T21:12:31.508Z,8.70
2022-08-07T21:15:05.110Z,9.00
2022-08-07T21:18:06.600Z,8.50
2022-08-07T21:20:33.303Z,8.60
2022-08-07T21:23:09.212Z,8.70
2022-08-07T21:26:03.133Z,8.90
2022-08-07T21:28:49.464Z,8.80
2022-08-07T21:31:49.845Z,9.20
2022-08-07T21:34:31.893Z,9.00
2022-08-07T21:37:10.069Z,8.80
2022-08-07T21:39:51.456Z,8.80
2022-08-07T21:42:42.975Z,9.10
2022-08-07T21:46:09.455Z,8.90
2022-08-07T21:48:29.075Z,8.80
2022-08-07T21:51:19.240Z,8.97
2022-08-07T21:53:54.143Z,8.80
2022-08-07T21:56:36.242Z,9.00
2022-08-07T21:59:11.399Z,8.90
2022-08-07T22:02:11.450Z,9.03
2022-08-07T22:04:51.093Z,9.00
2022-08-07T22:07:31.716Z,8.93
2022-08-07T22:10:20.085Z,9.00
2022-08-07T22:12:55.041Z,9.10
2022-08-07T22:16:41.851Z,8.90
2022-08-07T22:18:25.503Z,8.80
2022-08-07T22:21:01.752Z,9.17
2022-08-07T22:23:40.377Z,9.23
2022-08-07T22:26:22.981Z,9.10
2022-08-07T22:29:00.903Z,9.13
2022-08-07T22:31:56.150Z,8.97
2022-08-07T22:34:49.691Z,9.10
2022-08-07T22:38:03.114Z,9.10
2022-08-07T22:40:43.790Z,8.80
2022-08-07T22:43:17.865Z,9.00
2022-08-07T22:46:21.219Z,8.90
2022-08-07T22:49:16.088Z,8.90
2022-08-07T22:52:01.620Z,8.80
2022-08-07T22:54:56.441Z,8.80
2022-08-07T22:57:54.040Z,9.13
2022-08-07T23:00:33.716Z,9.00
2022-08-07T23:03:29.767Z,9.00
2022-08-07T23:06:54.950Z,9.10
2022-08-07T23:10:06.295Z,8.90
2022-08-07T23:12:38.618Z,8.90
2022-08-07T23:16:04.962Z,9.23
2022-08-07T23:18:32.105Z,9.30
2022-08-07T23:21:21.063Z,9.20
2022-08-07T23:24:34.960Z,9.07
2022-08-07T23:27:33.817Z,9.07
2022-08-07T23:30:39.126Z,9.00
2022-08-07T23:34:35.634Z,9.33
2022-08-07T23:36:39.243Z,9.20
2022-08-07T23:39:22.074Z,9.20
2022-08-07T23:42:05.603Z,9.10
2022-08-07T23:45:15.003Z,9.00
2022-08-07T23:48:27.991Z,9.20
2022-08-07T23:51:04.027Z,9.13
2022-08-07T23:54:00.348Z,9.30
2022-08-07T23:56:41.666Z,8.97
